sensor_id;sensor_type;location;lat;lon;timestamp;pressure;altitude;pressure_sealevel;temperature;humidity
28927;BME280;16038;47.692;9.400;2023-03-03T00:01:37;96790.00;;;1.42;100.00
28927;BME280;16038;47.692;9.400;2023-03-03T00:04:03;96785.66;;;1.32;100.00
28927;BME280;16038;47.692;9.400;2023-03-03T00:06:28;96789.44;;;1.31;100.00
28927;BME280;16038;47.692;9.400;2023-03-03T00:08:54;96783.44;;;1.34;100.00
28927;BME280;16038;47.692;9.400;2023-03-03T00:11:19;96785.00;;;1.35;100.00
28927;BME280;16038;47.692;9.400;2023-03-03T00:13:46;96783.25;;;1.30;100.00
28927;BME280;16038;47.692;9.400;2023-03-03T00:16:13;96782.66;;;1.33;100.00
28927;BME280;16038;47.692;9.400;2023-03-03T00:18:43;96775.22;;;1.39;100.00
28927;BME280;16038;47.692;9.400;2023-03-03T00:21:29;96773.88;;;1.28;100.00
28927;BME280;16038;47.692;9.400;2023-03-03T00:23:58;96784.53;;;1.33;100.00
28927;BME280;16038;47.692;9.400;2023-03-03T00:26:31;96783.03;;;1.41;100.00
28927;BME280;16038;47.692;9.400;2023-03-03T00:28:59;96788.78;;;1.11;100.00
28927;BME280;16038;47.692;9.400;2023-03-03T00:31:32;96784.63;;;0.50;100.00
28927;BME280;16038;47.692;9.400;2023-03-03T00:33:59;96781.75;;;0.46;100.00
28927;BME280;16038;47.692;9.400;2023-03-03T00:39:43;96787.81;;;0.93;100.00
28927;BME280;16038;47.692;9.400;2023-03-03T00:41:44;96788.66;;;1.17;100.00
28927;BME280;16038;47.692;9.400;2023-03-03T00:46:53;96802.53;;;1.38;100.00
28927;BME280;16038;47.692;9.400;2023-03-03T00:49:21;96796.75;;;1.30;100.00
28927;BME280;16038;47.692;9.400;2023-03-03T00:51:48;96796.44;;;1.32;100.00
28927;BME280;16038;47.692;9.400;2023-03-03T00:54:14;96794.53;;;1.32;100.00
28927;BME280;16038;47.692;9.400;2023-03-03T00:56:39;96793.66;;;1.23;100.00
28927;BME280;16038;47.692;9.400;2023-03-03T00:59:04;96789.69;;;1.21;100.00
28927;BME280;16038;47.692;9.400;2023-03-03T01:01:31;96792.38;;;1.21;100.00
28927;BME280;16038;47.692;9.400;2023-03-03T01:03:56;96794.81;;;0.81;100.00
28927;BME280;16038;47.692;9.400;2023-03-03T01:06:22;96789.81;;;0.32;100.00
28927;BME280;16038;47.692;9.400;2023-03-03T01:08:47;96787.53;;;0.40;100.00
28927;BME280;16038;47.692;9.400;2023-03-03T01:11:14;96786.13;;;0.70;100.00
28927;BME280;16038;47.692;9.400;2023-03-03T01:13:41;96782.25;;;0.76;100.00
28927;BME280;16038;47.692;9.400;2023-03-03T01:16:07;96785.75;;;0.76;100.00
28927;BME280;16038;47.692;9.400;2023-03-03T01:18:32;96783.53;;;0.65;100.00
28927;BME280;16038;47.692;9.400;2023-03-03T01:20:58;96782.63;;;0.55;100.00
28927;BME280;16038;47.692;9.400;2023-03-03T01:23:24;96779.56;;;0.76;100.00
28927;BME280;16038;47.692;9.400;2023-03-03T01:25:49;96780.44;;;0.99;100.00
28927;BME280;16038;47.692;9.400;2023-03-03T01:28:14;96778.41;;;1.05;100.00
28927;BME280;16038;47.692;9.400;2023-03-03T01:30:39;96777.75;;;0.71;100.00
28927;BME280;16038;47.692;9.400;2023-03-03T01:33:05;96777.75;;;0.57;100.00
28927;BME280;16038;47.692;9.400;2023-03-03T01:35:30;96768.19;;;0.51;100.00
28927;BME280;16038;47.692;9.400;2023-03-03T01:37:55;96774.75;;;0.59;100.00
28927;BME280;16038;47.692;9.400;2023-03-03T01:40:22;96774.13;;;0.90;100.00
28927;BME280;16038;47.692;9.400;2023-03-03T01:42:49;96776.31;;;1.02;100.00
28927;BME280;16038;47.692;9.400;2023-03-03T01:45:17;96775.00;;;1.13;100.00
28927;BME280;16038;47.692;9.400;2023-03-03T01:47:44;96780.06;;;1.28;100.00
28927;BME280;16038;47.692;9.400;2023-03-03T01:50:11;96774.66;;;1.28;100.00
28927;BME280;16038;47.692;9.400;2023-03-03T01:52:42;96767.16;;;1.25;100.00
28927;BME280;16038;47.692;9.400;2023-03-03T01:55:17;96771.59;;;1.21;100.00
28927;BME280;16038;47.692;9.400;2023-03-03T01:57:45;96766.28;;;1.16;100.00
28927;BME280;16038;47.692;9.400;2023-03-03T02:00:13;96760.13;;;1.16;100.00
28927;BME280;16038;47.692;9.400;2023-03-03T02:02:39;96761.19;;;1.14;100.00
28927;BME280;16038;47.692;9.400;2023-03-03T02:05:05;96764.19;;;1.13;100.00
28927;BME280;16038;47.692;9.400;2023-03-03T02:07:31;96759.28;;;1.15;100.00
28927;BME280;16038;47.692;9.400;2023-03-03T02:10:04;96751.19;;;1.15;100.00
28927;BME280;16038;47.692;9.400;2023-03-03T02:12:32;96755.13;;;1.09;100.00
28927;BME280;16038;47.692;9.400;2023-03-03T02:14:58;96756.53;;;1.06;100.00
28927;BME280;16038;47.692;9.400;2023-03-03T02:17:23;96758.00;;;1.12;100.00
28927;BME280;16038;47.692;9.400;2023-03-03T02:19:51;96768.50;;;1.14;100.00
28927;BME280;16038;47.692;9.400;2023-03-03T02:22:20;96765.31;;;1.12;100.00
28927;BME280;16038;47.692;9.400;2023-03-03T02:24:50;96764.19;;;1.13;100.00
28927;BME280;16038;47.692;9.400;2023-03-03T02:27:17;96772.06;;;0.87;100.00
28927;BME280;16038;47.692;9.400;2023-03-03T02:29:42;96763.00;;;0.55;100.00
28927;BME280;16038;47.692;9.400;2023-03-03T02:32:08;96769.47;;;0.68;100.00
28927;BME280;16038;47.692;9.400;2023-03-03T02:34:46;96768.13;;;0.93;100.00
28927;BME280;16038;47.692;9.400;2023-03-03T02:37:12;96768.03;;;0.98;100.00
28927;BME280;16038;47.692;9.400;2023-03-03T02:39:37;96769.03;;;1.02;100.00
28927;BME280;16038;47.692;9.400;2023-03-03T02:42:07;96763.63;;;1.02;100.00
28927;BME280;16038;47.692;9.400;2023-03-03T02:44:36;96765.94;;;0.95;100.00
28927;BME280;16038;47.692;9.400;2023-03-03T02:47:02;96773.53;;;0.93;100.00
28927;BME280;16038;47.692;9.400;2023-03-03T02:49:28;96766.56;;;0.92;100.00
28927;BME280;16038;47.692;9.400;2023-03-03T02:51:56;96764.25;;;0.99;100.00
28927;BME280;16038;47.692;9.400;2023-03-03T02:54:22;96759.44;;;0.96;100.00
28927;BME280;16038;47.692;9.400;2023-03-03T02:56:48;96755.84;;;1.01;100.00
28927;BME280;16038;47.692;9.400;2023-03-03T02:59:13;96748.94;;;1.08;100.00
28927;BME280;16038;47.692;9.400;2023-03-03T03:01:39;96751.44;;;1.05;100.00
28927;BME280;16038;47.692;9.400;2023-03-03T03:04:06;96756.34;;;1.03;100.00
28927;BME280;16038;47.692;9.400;2023-03-03T03:06:32;96749.53;;;1.05;100.00
28927;BME280;16038;47.692;9.400;2023-03-03T03:08:57;96746.84;;;1.05;100.00
28927;BME280;16038;47.692;9.400;2023-03-03T03:11:24;96746.84;;;1.05;100.00
28927;BME280;16038;47.692;9.400;2023-03-03T03:13:49;96748.44;;;1.06;100.00
28927;BME280;16038;47.692;9.400;2023-03-03T03:16:15;96742.03;;;1.16;100.00
28927;BME280;16038;47.692;9.400;2023-03-03T03:18:41;96748.41;;;1.20;100.00
28927;BME280;16038;47.692;9.400;2023-03-03T03:21:07;96746.44;;;1.12;100.00
28927;BME280;16038;47.692;9.400;2023-03-03T03:23:33;96744.34;;;1.09;100.00
28927;BME280;16038;47.692;9.400;2023-03-03T03:25:58;96747.53;;;1.11;100.00
28927;BME280;16038;47.692;9.400;2023-03-03T03:28:23;96742.91;;;1.11;100.00
28927;BME280;16038;47.692;9.400;2023-03-03T03:30:49;96740.41;;;1.15;100.00
28927;BME280;16038;47.692;9.400;2023-03-03T03:33:15;96736.50;;;1.21;100.00
28927;BME280;16038;47.692;9.400;2023-03-03T03:35:40;96729.22;;;1.22;100.00
28927;BME280;16038;47.692;9.400;2023-03-03T03:38:10;96738.94;;;1.09;100.00
28927;BME280;16038;47.692;9.400;2023-03-03T03:40:35;96723.16;;;1.02;100.00
28927;BME280;16038;47.692;9.400;2023-03-03T03:43:01;96741.84;;;0.99;100.00
28927;BME280;16038;47.692;9.400;2023-03-03T03:45:26;96752.34;;;1.00;100.00
28927;BME280;16038;47.692;9.400;2023-03-03T03:47:51;96749.84;;;1.04;100.00
28927;BME280;16038;47.692;9.400;2023-03-03T03:50:16;96744.81;;;1.11;100.00
28927;BME280;16038;47.692;9.400;2023-03-03T03:52:42;96747.31;;;1.21;100.00
28927;BME280;16038;47.692;9.400;2023-03-03T03:55:07;96752.81;;;1.16;100.00
28927;BME280;16038;47.692;9.400;2023-03-03T03:57:33;96750.53;;;1.09;100.00
28927;BME280;16038;47.692;9.400;2023-03-03T03:59:58;96748.13;;;1.08;100.00
28927;BME280;16038;47.692;9.400;2023-03-03T04:02:23;96744.81;;;1.11;100.00
28927;BME280;16038;47.692;9.400;2023-03-03T04:04:49;96746.34;;;1.03;100.00
28927;BME280;16038;47.692;9.400;2023-03-03T04:07:14;96750.44;;;1.01;100.00
28927;BME280;16038;47.692;9.400;2023-03-03T04:09:39;96755.72;;;1.06;100.00
28927;BME280;16038;47.692;9.400;2023-03-03T04:12:05;96741.63;;;1.09;100.00
28927;BME280;16038;47.692;9.400;2023-03-03T04:14:30;96741.22;;;1.16;100.00
28927;BME280;16038;47.692;9.400;2023-03-03T04:16:56;96747.53;;;1.11;100.00
28927;BME280;16038;47.692;9.400;2023-03-03T04:19:22;96745.31;;;1.13;100.00
28927;BME280;16038;47.692;9.400;2023-03-03T04:21:48;96745.19;;;1.18;100.00
28927;BME280;16038;47.692;9.400;2023-03-03T04:24:13;96749.31;;;1.16;100.00
28927;BME280;16038;47.692;9.400;2023-03-03T04:26:38;96747.22;;;1.12;100.00
28927;BME280;16038;47.692;9.400;2023-03-03T04:29:03;96746.63;;;1.16;100.00
28927;BME280;16038;47.692;9.400;2023-03-03T04:31:29;96743.75;;;1.12;100.00
28927;BME280;16038;47.692;9.400;2023-03-03T04:33:54;96752.50;;;1.18;100.00
28927;BME280;16038;47.692;9.400;2023-03-03T04:36:20;96746.31;;;1.17;100.00
28927;BME280;16038;47.692;9.400;2023-03-03T04:38:45;96741.03;;;1.12;100.00
28927;BME280;16038;47.692;9.400;2023-03-03T04:41:11;96738.66;;;0.97;100.00
28927;BME280;16038;47.692;9.400;2023-03-03T04:43:36;96750.41;;;0.78;100.00
28927;BME280;16038;47.692;9.400;2023-03-03T04:46:01;96745.00;;;0.92;100.00
28927;BME280;16038;47.692;9.400;2023-03-03T04:48:27;96751.16;;;1.06;100.00
28927;BME280;16038;47.692;9.400;2023-03-03T04:50:52;96745.00;;;1.14;100.00
28927;BME280;16038;47.692;9.400;2023-03-03T04:53:18;96747.34;;;1.07;100.00
28927;BME280;16038;47.692;9.400;2023-03-03T04:55:43;96749.16;;;0.98;100.00
28927;BME280;16038;47.692;9.400;2023-03-03T04:58:09;96755.28;;;0.76;100.00
28927;BME280;16038;47.692;9.400;2023-03-03T05:00:34;96758.66;;;0.95;100.00
28927;BME280;16038;47.692;9.400;2023-03-03T05:03:00;96762.63;;;1.12;100.00
28927;BME280;16038;47.692;9.400;2023-03-03T05:05:25;96753.59;;;1.17;100.00
28927;BME280;16038;47.692;9.400;2023-03-03T05:07:53;96762.63;;;1.12;100.00
28927;BME280;16038;47.692;9.400;2023-03-03T05:10:18;96755.31;;;1.12;100.00
28927;BME280;16038;47.692;9.400;2023-03-03T05:12:44;96764.31;;;1.08;100.00
28927;BME280;16038;47.692;9.400;2023-03-03T05:15:09;96763.09;;;1.14;100.00
28927;BME280;16038;47.692;9.400;2023-03-03T05:17:35;96768.22;;;1.16;100.00
28927;BME280;16038;47.692;9.400;2023-03-03T05:20:00;96770.41;;;1.13;100.00
28927;BME280;16038;47.692;9.400;2023-03-03T05:22:25;96768.88;;;1.21;100.00
28927;BME280;16038;47.692;9.400;2023-03-03T05:24:51;96766.69;;;1.23;100.00
28927;BME280;16038;47.692;9.400;2023-03-03T05:27:17;96761.59;;;1.22;100.00
28927;BME280;16038;47.692;9.400;2023-03-03T05:29:43;96766.56;;;1.28;100.00
28927;BME280;16038;47.692;9.400;2023-03-03T05:32:08;96759.00;;;1.17;100.00
28927;BME280;16038;47.692;9.400;2023-03-03T05:34:33;96767.53;;;1.10;100.00
28927;BME280;16038;47.692;9.400;2023-03-03T05:36:58;96766.91;;;1.13;100.00
28927;BME280;16038;47.692;9.400;2023-03-03T05:39:24;96770.09;;;1.15;100.00
28927;BME280;16038;47.692;9.400;2023-03-03T05:41:49;96768.50;;;1.14;100.00
28927;BME280;16038;47.692;9.400;2023-03-03T05:44:15;96774.28;;;1.21;100.00
28927;BME280;16038;47.692;9.400;2023-03-03T05:46:41;96782.69;;;1.20;100.00
28927;BME280;16038;47.692;9.400;2023-03-03T05:49:07;96780.16;;;1.23;100.00
28927;BME280;16038;47.692;9.400;2023-03-03T05:51:32;96778.88;;;1.21;100.00
28927;BME280;16038;47.692;9.400;2023-03-03T05:53:58;96787.19;;;1.24;100.00
28927;BME280;16038;47.692;9.400;2023-03-03T05:56:23;96788.38;;;1.18;100.00
28927;BME280;16038;47.692;9.400;2023-03-03T05:58:48;96787.19;;;1.10;100.00
28927;BME280;16038;47.692;9.400;2023-03-03T06:01:14;96778.81;;;1.12;100.00
28927;BME280;16038;47.692;9.400;2023-03-03T06:03:39;96788.06;;;1.20;100.00
28927;BME280;16038;47.692;9.400;2023-03-03T06:06:04;96786.66;;;1.22;100.00
28927;BME280;16038;47.692;9.400;2023-03-03T06:08:30;96788.56;;;1.22;100.00
28927;BME280;16038;47.692;9.400;2023-03-03T06:10:56;96789.06;;;1.24;100.00
28927;BME280;16038;47.692;9.400;2023-03-03T06:13:22;96786.16;;;1.20;100.00
28927;BME280;16038;47.692;9.400;2023-03-03T06:15:47;96789.69;;;1.21;100.00
28927;BME280;16038;47.692;9.400;2023-03-03T06:18:12;96793.97;;;1.22;100.00
28927;BME280;16038;47.692;9.400;2023-03-03T06:20:38;96788.38;;;1.18;100.00
28927;BME280;16038;47.692;9.400;2023-03-03T06:23:03;96794.44;;;1.24;100.00
28927;BME280;16038;47.692;9.400;2023-03-03T06:25:28;96807.84;;;1.29;100.00
28927;BME280;16038;47.692;9.400;2023-03-03T06:27:54;96796.66;;;1.22;100.00
28927;BME280;16038;47.692;9.400;2023-03-03T06:30:19;96807.94;;;1.24;100.00
28927;BME280;16038;47.692;9.400;2023-03-03T06:32:45;96812.13;;;1.30;100.00
28927;BME280;16038;47.692;9.400;2023-03-03T06:35:11;96815.81;;;1.34;100.00
28927;BME280;16038;47.692;9.400;2023-03-03T06:37:36;96824.41;;;1.36;100.00
28927;BME280;16038;47.692;9.400;2023-03-03T06:40:02;96817.97;;;1.46;100.00
28927;BME280;16038;47.692;9.400;2023-03-03T06:42:28;96821.78;;;1.45;100.00
28927;BME280;16038;47.692;9.400;2023-03-03T06:44:54;96818.31;;;1.44;100.00
28927;BME280;16038;47.692;9.400;2023-03-03T06:47:19;96830.19;;;1.43;100.00
28927;BME280;16038;47.692;9.400;2023-03-03T06:49:44;96832.00;;;1.48;100.00
28927;BME280;16038;47.692;9.400;2023-03-03T06:52:27;96832.66;;;1.53;100.00
28927;BME280;16038;47.692;9.400;2023-03-03T06:54:57;96840.69;;;1.45;100.00
28927;BME280;16038;47.692;9.400;2023-03-03T06:57:27;96830.28;;;1.52;100.00
28927;BME280;16038;47.692;9.400;2023-03-03T06:59:53;96833.47;;;1.54;100.00
28927;BME280;16038;47.692;9.400;2023-03-03T07:02:19;96839.72;;;1.63;100.00
28927;BME280;16038;47.692;9.400;2023-03-03T07:04:45;96839.31;;;1.70;100.00
28927;BME280;16038;47.692;9.400;2023-03-03T07:07:21;96842.19;;;1.74;100.00
28927;BME280;16038;47.692;9.400;2023-03-03T07:09:53;96846.00;;;1.72;100.00
28927;BME280;16038;47.692;9.400;2023-03-03T07:12:20;96846.06;;;1.81;100.00
28927;BME280;16038;47.692;9.400;2023-03-03T07:14:48;96848.66;;;1.86;100.00
28927;BME280;16038;47.692;9.400;2023-03-03T07:17:17;96850.28;;;1.96;100.00
28927;BME280;16038;47.692;9.400;2023-03-03T07:19:43;96845.16;;;1.86;100.00
28927;BME280;16038;47.692;9.400;2023-03-03T07:24:37;96854.78;;;2.01;100.00
28927;BME280;16038;47.692;9.400;2023-03-03T07:29:32;96863.88;;;2.05;100.00
28927;BME280;16038;47.692;9.400;2023-03-03T07:31:58;96864.53;;;2.10;100.00
28927;BME280;16038;47.692;9.400;2023-03-03T07:34:35;96859.13;;;2.10;100.00
28927;BME280;16038;47.692;9.400;2023-03-03T07:37:03;96865.66;;;2.09;100.00
28927;BME280;16038;47.692;9.400;2023-03-03T07:39:34;96869.03;;;2.15;100.00
28927;BME280;16038;47.692;9.400;2023-03-03T07:44:43;96866.47;;;2.33;100.00
28927;BME280;16038;47.692;9.400;2023-03-03T07:47:21;96867.78;;;2.21;100.00
28927;BME280;16038;47.692;9.400;2023-03-03T07:49:47;96874.31;;;2.20;100.00
28927;BME280;16038;47.692;9.400;2023-03-03T07:54:42;96875.88;;;2.13;100.00
28927;BME280;16038;47.692;9.400;2023-03-03T07:59:45;96879.63;;;2.57;100.00
28927;BME280;16038;47.692;9.400;2023-03-03T08:04:51;96881.72;;;2.60;100.00
28927;BME280;16038;47.692;9.400;2023-03-03T08:07:19;96885.66;;;2.54;100.00
28927;BME280;16038;47.692;9.400;2023-03-03T08:09:50;96886.34;;;2.68;100.00
28927;BME280;16038;47.692;9.400;2023-03-03T08:14:47;96884.94;;;2.71;100.00
28927;BME280;16038;47.692;9.400;2023-03-03T08:17:19;96886.00;;;2.92;100.00
28927;BME280;16038;47.692;9.400;2023-03-03T08:19:46;96882.91;;;3.16;100.00
28927;BME280;16038;47.692;9.400;2023-03-03T08:22:15;96880.03;;;3.13;100.00
28927;BME280;16038;47.692;9.400;2023-03-03T08:24:41;96882.81;;;2.99;100.00
28927;BME280;16038;47.692;9.400;2023-03-03T08:27:07;96887.75;;;2.97;100.00
28927;BME280;16038;47.692;9.400;2023-03-03T08:29:32;96887.28;;;2.95;100.00
28927;BME280;16038;47.692;9.400;2023-03-03T08:31:57;96887.50;;;3.07;100.00
28927;BME280;16038;47.692;9.400;2023-03-03T08:34:22;96888.34;;;3.25;100.00
28927;BME280;16038;47.692;9.400;2023-03-03T08:36:48;96889.63;;;3.36;100.00
28927;BME280;16038;47.692;9.400;2023-03-03T08:39:14;96887.75;;;3.45;100.00
28927;BME280;16038;47.692;9.400;2023-03-03T08:41:39;96900.38;;;3.59;100.00
28927;BME280;16038;47.692;9.400;2023-03-03T08:44:07;96888.91;;;3.71;100.00
28927;BME280;16038;47.692;9.400;2023-03-03T08:46:33;96891.16;;;3.77;100.00
28927;BME280;16038;47.692;9.400;2023-03-03T08:48:58;96894.66;;;3.87;99.82
28927;BME280;16038;47.692;9.400;2023-03-03T08:51:23;96895.59;;;3.99;98.91
28927;BME280;16038;47.692;9.400;2023-03-03T08:53:50;96901.66;;;4.05;97.67
28927;BME280;16038;47.692;9.400;2023-03-03T08:56:15;96898.31;;;4.26;95.14
28927;BME280;16038;47.692;9.400;2023-03-03T08:58:40;96900.88;;;4.31;95.45
28927;BME280;16038;47.692;9.400;2023-03-03T09:01:12;96907.09;;;4.40;94.63
28927;BME280;16038;47.692;9.400;2023-03-03T09:03:38;96904.03;;;4.50;93.77
28927;BME280;16038;47.692;9.400;2023-03-03T09:06:03;96906.75;;;4.50;93.48
28927;BME280;16038;47.692;9.400;2023-03-03T09:08:28;96904.00;;;4.59;92.50
28927;BME280;16038;47.692;9.400;2023-03-03T09:10:54;96899.41;;;4.59;91.45
28927;BME280;16038;47.692;9.400;2023-03-03T09:13:19;96900.19;;;4.60;92.02
28927;BME280;16038;47.692;9.400;2023-03-03T09:15:44;96899.00;;;4.78;91.23
28927;BME280;16038;47.692;9.400;2023-03-03T09:18:15;96914.31;;;4.92;90.86
28927;BME280;16038;47.692;9.400;2023-03-03T09:25:50;96910.53;;;4.75;89.03
28927;BME280;16038;47.692;9.400;2023-03-03T09:28:27;96906.00;;;4.97;89.36
28927;BME280;16038;47.692;9.400;2023-03-03T09:30:53;96915.44;;;4.91;89.38
28927;BME280;16038;47.692;9.400;2023-03-03T09:33:21;96912.38;;;4.92;89.92
28927;BME280;16038;47.692;9.400;2023-03-03T09:35:48;96919.34;;;5.49;87.18
28927;BME280;16038;47.692;9.400;2023-03-03T09:40:49;96918.38;;;5.75;83.81
28927;BME280;16038;47.692;9.400;2023-03-03T09:43:21;96919.38;;;6.00;81.99
28927;BME280;16038;47.692;9.400;2023-03-03T09:51:07;96918.19;;;5.80;83.68
28927;BME280;16038;47.692;9.400;2023-03-03T09:56:24;96920.28;;;5.53;83.71
28927;BME280;16038;47.692;9.400;2023-03-03T09:58:55;96919.00;;;5.51;84.24
28927;BME280;16038;47.692;9.400;2023-03-03T10:16:48;96922.38;;;4.53;92.18
28927;BME280;16038;47.692;9.400;2023-03-03T10:19:37;96915.00;;;4.63;91.63
28927;BME280;16038;47.692;9.400;2023-03-03T10:24:58;96926.53;;;4.59;92.13
28927;BME280;16038;47.692;9.400;2023-03-03T10:27:36;96917.59;;;4.50;93.70
28927;BME280;16038;47.692;9.400;2023-03-03T10:32:36;96923.66;;;4.38;93.71
28927;BME280;16038;47.692;9.400;2023-03-03T10:35:13;96920.81;;;4.00;97.26
28927;BME280;16038;47.692;9.400;2023-03-03T10:37:48;96914.75;;;4.20;97.41
28927;BME280;16038;47.692;9.400;2023-03-03T10:40:24;96926.53;;;4.42;95.97
28927;BME280;16038;47.692;9.400;2023-03-03T10:43:02;96922.66;;;4.69;95.34
28927;BME280;16038;47.692;9.400;2023-03-03T10:45:35;96917.22;;;4.69;94.46
28927;BME280;16038;47.692;9.400;2023-03-03T10:50:42;96919.75;;;4.83;92.07
28927;BME280;16038;47.692;9.400;2023-03-03T11:11:13;96923.59;;;6.31;85.40
28927;BME280;16038;47.692;9.400;2023-03-03T11:21:19;96918.91;;;6.74;79.39
28927;BME280;16038;47.692;9.400;2023-03-03T11:31:56;96923.53;;;6.19;83.71
28927;BME280;16038;47.692;9.400;2023-03-03T11:36:52;96909.22;;;6.09;84.73
28927;BME280;16038;47.692;9.400;2023-03-03T11:39:21;96906.31;;;5.85;85.33
28927;BME280;16038;47.692;9.400;2023-03-03T11:44:53;96896.28;;;5.55;87.51
28927;BME280;16038;47.692;9.400;2023-03-03T11:49:54;96894.38;;;5.77;87.25
28927;BME280;16038;47.692;9.400;2023-03-03T11:52:37;96895.63;;;5.80;86.34
28927;BME280;16038;47.692;9.400;2023-03-03T11:55:53;96896.34;;;5.47;87.13
28927;BME280;16038;47.692;9.400;2023-03-03T11:57:53;96894.78;;;5.37;87.89
28927;BME280;16038;47.692;9.400;2023-03-03T12:05:26;96880.16;;;5.80;86.46
28927;BME280;16038;47.692;9.400;2023-03-03T12:08:00;96882.31;;;5.87;86.17
28927;BME280;16038;47.692;9.400;2023-03-03T12:10:36;96878.66;;;6.12;84.03
28927;BME280;16038;47.692;9.400;2023-03-03T12:15:50;96890.31;;;6.13;83.78
28927;BME280;16038;47.692;9.400;2023-03-03T12:21:10;96883.31;;;5.82;84.41
28927;BME280;16038;47.692;9.400;2023-03-03T12:26:31;96884.50;;;5.51;86.16
28927;BME280;16038;47.692;9.400;2023-03-03T12:29:06;96878.78;;;5.44;86.66
28927;BME280;16038;47.692;9.400;2023-03-03T12:34:10;96873.22;;;5.62;87.26
28927;BME280;16038;47.692;9.400;2023-03-03T12:39:26;96873.31;;;5.95;84.71
28927;BME280;16038;47.692;9.400;2023-03-03T12:49:38;96872.63;;;6.07;83.44
28927;BME280;16038;47.692;9.400;2023-03-03T12:54:52;96873.97;;;5.92;85.16
28927;BME280;16038;47.692;9.400;2023-03-03T12:59:55;96874.00;;;6.13;83.05
28927;BME280;16038;47.692;9.400;2023-03-03T13:05:09;96865.13;;;6.04;84.29
28927;BME280;16038;47.692;9.400;2023-03-03T13:07:44;96852.03;;;6.18;83.67
28927;BME280;16038;47.692;9.400;2023-03-03T13:25:36;96848.69;;;6.79;79.31
28927;BME280;16038;47.692;9.400;2023-03-03T13:28:20;96852.16;;;6.67;79.79
28927;BME280;16038;47.692;9.400;2023-03-03T13:30:48;96854.66;;;5.85;81.95
28927;BME280;16038;47.692;9.400;2023-03-03T13:33:20;96848.53;;;6.18;82.40
28927;BME280;16038;47.692;9.400;2023-03-03T13:35:49;96848.28;;;6.23;82.94
28927;BME280;16038;47.692;9.400;2023-03-03T13:38:19;96848.53;;;6.18;82.39
28927;BME280;16038;47.692;9.400;2023-03-03T13:40:47;96850.28;;;5.50;85.45
28927;BME280;16038;47.692;9.400;2023-03-03T13:43:16;96852.84;;;5.77;84.72
28927;BME280;16038;47.692;9.400;2023-03-03T13:45:58;96845.22;;;5.91;83.82
28927;BME280;16038;47.692;9.400;2023-03-03T13:48:37;96846.88;;;6.04;84.12
28927;BME280;16038;47.692;9.400;2023-03-03T13:53:57;96840.00;;;6.07;83.69
28927;BME280;16038;47.692;9.400;2023-03-03T13:59:18;96843.34;;;6.25;82.88
28927;BME280;16038;47.692;9.400;2023-03-03T14:01:52;96841.28;;;6.22;82.38
28927;BME280;16038;47.692;9.400;2023-03-03T14:06:56;96838.63;;;6.34;82.53
28927;BME280;16038;47.692;9.400;2023-03-03T14:15:02;96828.56;;;5.92;85.00
28927;BME280;16038;47.692;9.400;2023-03-03T14:17:01;96824.97;;;5.80;86.24
28927;BME280;16038;47.692;9.400;2023-03-03T14:19:35;96821.47;;;5.37;88.56
28927;BME280;16038;47.692;9.400;2023-03-03T14:25:30;96822.59;;;5.57;87.77
28927;BME280;16038;47.692;9.400;2023-03-03T14:27:59;96815.38;;;5.82;87.66
28927;BME280;16038;47.692;9.400;2023-03-03T14:30:32;96815.88;;;5.54;88.04
28927;BME280;16038;47.692;9.400;2023-03-03T14:35:24;96821.19;;;5.72;88.00
28927;BME280;16038;47.692;9.400;2023-03-03T14:37:53;96812.91;;;5.47;88.85
28927;BME280;16038;47.692;9.400;2023-03-03T14:40:32;96808.13;;;5.65;88.15
28927;BME280;16038;47.692;9.400;2023-03-03T14:42:59;96809.94;;;5.82;87.22
28927;BME280;16038;47.692;9.400;2023-03-03T14:48:24;96811.94;;;5.73;88.65
28927;BME280;16038;47.692;9.400;2023-03-03T14:50:51;96812.91;;;5.89;88.63
28927;BME280;16038;47.692;9.400;2023-03-03T14:55:42;96800.59;;;5.71;89.35
28927;BME280;16038;47.692;9.400;2023-03-03T15:03:35;96797.59;;;5.85;89.80
28927;BME280;16038;47.692;9.400;2023-03-03T15:06:07;96803.84;;;5.85;89.01
28927;BME280;16038;47.692;9.400;2023-03-03T15:08:34;96801.44;;;6.05;87.84
28927;BME280;16038;47.692;9.400;2023-03-03T15:13:40;96812.41;;;5.96;87.86
28927;BME280;16038;47.692;9.400;2023-03-03T15:16:10;96808.34;;;5.81;89.00
28927;BME280;16038;47.692;9.400;2023-03-03T15:18:49;96808.94;;;5.45;90.02
28927;BME280;16038;47.692;9.400;2023-03-03T15:21:21;96799.66;;;5.67;89.99
28927;BME280;16038;47.692;9.400;2023-03-03T15:31:51;96802.19;;;5.72;91.50
28927;BME280;16038;47.692;9.400;2023-03-03T15:42:02;96806.75;;;5.38;91.50
28927;BME280;16038;47.692;9.400;2023-03-03T15:57:29;96808.56;;;5.55;90.81
28927;BME280;16038;47.692;9.400;2023-03-03T16:00:14;96809.88;;;5.70;89.69
28927;BME280;16038;47.692;9.400;2023-03-03T16:02:51;96807.88;;;5.58;90.89
28927;BME280;16038;47.692;9.400;2023-03-03T16:05:34;96808.94;;;5.45;91.44
28927;BME280;16038;47.692;9.400;2023-03-03T16:08:08;96808.34;;;5.39;92.54
28927;BME280;16038;47.692;9.400;2023-03-03T16:21:02;96807.97;;;5.49;92.14
28927;BME280;16038;47.692;9.400;2023-03-03T16:23:42;96820.06;;;5.52;92.42
28927;BME280;16038;47.692;9.400;2023-03-03T16:28:55;96814.19;;;5.50;91.87
28927;BME280;16038;47.692;9.400;2023-03-03T16:36:25;96822.94;;;5.55;93.50
28927;BME280;16038;47.692;9.400;2023-03-03T16:38:57;96825.03;;;5.50;93.60
28927;BME280;16038;47.692;9.400;2023-03-03T16:41:28;96820.41;;;5.50;93.69
28927;BME280;16038;47.692;9.400;2023-03-03T16:46:43;96828.28;;;5.43;94.29
28927;BME280;16038;47.692;9.400;2023-03-03T16:57:01;96837.81;;;5.28;95.76
28927;BME280;16038;47.692;9.400;2023-03-03T16:59:39;96844.22;;;5.24;96.00
28927;BME280;16038;47.692;9.400;2023-03-03T17:04:55;96852.28;;;5.11;95.86
28927;BME280;16038;47.692;9.400;2023-03-03T17:23:52;96874.13;;;4.76;100.00
28927;BME280;16038;47.692;9.400;2023-03-03T17:31:39;96876.00;;;4.29;100.00
28927;BME280;16038;47.692;9.400;2023-03-03T17:46:51;96891.13;;;4.47;100.00
28927;BME280;16038;47.692;9.400;2023-03-03T17:54:34;96894.97;;;3.76;100.00
28927;BME280;16038;47.692;9.400;2023-03-03T17:57:31;96903.59;;;3.87;100.00